sensor_id;sensor_type;location;lat;lon;timestamp;temperature;humidity
72126;SHT31;59999;51.676;22.650;2023-06-22T00:00:58;20.41;77.10
72126;SHT31;59999;51.676;22.650;2023-06-22T00:03:32;20.41;77.30
72126;SHT31;59999;51.676;22.650;2023-06-22T00:05:57;20.36;77.38
72126;SHT31;59999;51.676;22.650;2023-06-22T00:08:24;20.34;77.36
72126;SHT31;59999;51.676;22.650;2023-06-22T00:10:49;20.33;77.31
72126;SHT31;59999;51.676;22.650;2023-06-22T00:13:16;20.32;77.46
72126;SHT31;59999;51.676;22.650;2023-06-22T00:15:43;20.33;78.32
72126;SHT31;59999;51.676;22.650;2023-06-22T00:18:10;20.27;78.91
72126;SHT31;59999;51.676;22.650;2023-06-22T00:20:37;20.22;79.48
72126;SHT31;59999;51.676;22.650;2023-06-22T00:23:04;20.19;79.58
72126;SHT31;59999;51.676;22.650;2023-06-22T00:25:38;20.12;79.72
72126;SHT31;59999;51.676;22.650;2023-06-22T00:28:06;20.10;79.62
72126;SHT31;59999;51.676;22.650;2023-06-22T00:30:33;20.09;79.53
72126;SHT31;59999;51.676;22.650;2023-06-22T00:33:00;20.06;79.19
72126;SHT31;59999;51.676;22.650;2023-06-22T00:35:26;20.10;78.90
72126;SHT31;59999;51.676;22.650;2023-06-22T00:37:59;20.10;78.80
72126;SHT31;59999;51.676;22.650;2023-06-22T00:40:31;20.12;79.22
72126;SHT31;59999;51.676;22.650;2023-06-22T00:42:58;20.13;79.21
72126;SHT31;59999;51.676;22.650;2023-06-22T00:45:24;20.09;79.18
72126;SHT31;59999;51.676;22.650;2023-06-22T00:47:52;20.09;79.23
72126;SHT31;59999;51.676;22.650;2023-06-22T00:50:20;20.09;79.32
72126;SHT31;59999;51.676;22.650;2023-06-22T00:52:57;20.06;79.44
72126;SHT31;59999;51.676;22.650;2023-06-22T00:55:25;20.05;79.38
72126;SHT31;59999;51.676;22.650;2023-06-22T00:57:52;20.05;79.27
72126;SHT31;59999;51.676;22.650;2023-06-22T01:00:23;20.05;79.19
72126;SHT31;59999;51.676;22.650;2023-06-22T01:02:53;20.06;79.10
72126;SHT31;59999;51.676;22.650;2023-06-22T01:05:22;20.05;79.17
72126;SHT31;59999;51.676;22.650;2023-06-22T01:13:30;19.92;80.87
72126;SHT31;59999;51.676;22.650;2023-06-22T01:16:02;19.89;81.17
72126;SHT31;59999;51.676;22.650;2023-06-22T01:18:31;19.85;80.94
72126;SHT31;59999;51.676;22.650;2023-06-22T01:21:00;19.85;80.81
72126;SHT31;59999;51.676;22.650;2023-06-22T01:23:50;19.86;80.76
72126;SHT31;59999;51.676;22.650;2023-06-22T01:28:53;19.83;81.08
72126;SHT31;59999;51.676;22.650;2023-06-22T01:31:23;19.82;81.04
72126;SHT31;59999;51.676;22.650;2023-06-22T01:33:53;19.81;80.96
72126;SHT31;59999;51.676;22.650;2023-06-22T01:36:21;19.79;80.98
72126;SHT31;59999;51.676;22.650;2023-06-22T01:38:48;19.82;80.91
72126;SHT31;59999;51.676;22.650;2023-06-22T01:41:16;19.81;80.98
72126;SHT31;59999;51.676;22.650;2023-06-22T01:43:42;19.77;80.72
72126;SHT31;59999;51.676;22.650;2023-06-22T01:46:10;19.78;80.38
72126;SHT31;59999;51.676;22.650;2023-06-22T01:48:38;19.78;80.22
72126;SHT31;59999;51.676;22.650;2023-06-22T01:51:05;19.79;80.08
72126;SHT31;59999;51.676;22.650;2023-06-22T01:53:31;19.81;80.15
72126;SHT31;59999;51.676;22.650;2023-06-22T01:55:57;19.82;80.07
72126;SHT31;59999;51.676;22.650;2023-06-22T01:58:27;19.79;80.06
72126;SHT31;59999;51.676;22.650;2023-06-22T02:01:00;19.81;80.14
72126;SHT31;59999;51.676;22.650;2023-06-22T02:03:38;19.79;80.22
72126;SHT31;59999;51.676;22.650;2023-06-22T02:06:11;19.78;80.29
72126;SHT31;59999;51.676;22.650;2023-06-22T02:08:46;19.75;80.34
72126;SHT31;59999;51.676;22.650;2023-06-22T02:11:13;19.75;80.40
72126;SHT31;59999;51.676;22.650;2023-06-22T02:13:40;19.74;80.46
72126;SHT31;59999;51.676;22.650;2023-06-22T02:16:11;19.68;80.48
72126;SHT31;59999;51.676;22.650;2023-06-22T02:18:38;19.67;80.57
72126;SHT31;59999;51.676;22.650;2023-06-22T02:21:06;19.65;80.61
72126;SHT31;59999;51.676;22.650;2023-06-22T02:23:32;19.64;80.58
72126;SHT31;59999;51.676;22.650;2023-06-22T02:26:02;19.58;80.77
72126;SHT31;59999;51.676;22.650;2023-06-22T02:28:29;19.53;80.88
72126;SHT31;59999;51.676;22.650;2023-06-22T02:30:55;19.53;80.90
72126;SHT31;59999;51.676;22.650;2023-06-22T02:33:21;19.48;81.05
72126;SHT31;59999;51.676;22.650;2023-06-22T02:35:47;19.51;81.19
72126;SHT31;59999;51.676;22.650;2023-06-22T02:38:15;19.48;81.21
72126;SHT31;59999;51.676;22.650;2023-06-22T02:40:40;19.50;81.33
72126;SHT31;59999;51.676;22.650;2023-06-22T02:43:07;19.50;81.50
72126;SHT31;59999;51.676;22.650;2023-06-22T02:45:32;19.50;81.69
72126;SHT31;59999;51.676;22.650;2023-06-22T02:47:59;19.48;81.76
72126;SHT31;59999;51.676;22.650;2023-06-22T02:50:25;19.47;81.72
72126;SHT31;59999;51.676;22.650;2023-06-22T02:52:51;19.48;81.70
72126;SHT31;59999;51.676;22.650;2023-06-22T02:55:16;19.44;81.80
72126;SHT31;59999;51.676;22.650;2023-06-22T02:57:43;19.48;81.74
72126;SHT31;59999;51.676;22.650;2023-06-22T03:00:11;19.43;82.01
72126;SHT31;59999;51.676;22.650;2023-06-22T03:02:44;19.41;82.36
72126;SHT31;59999;51.676;22.650;2023-06-22T03:05:10;19.37;82.62
72126;SHT31;59999;51.676;22.650;2023-06-22T03:07:43;19.34;82.97
72126;SHT31;59999;51.676;22.650;2023-06-22T03:10:10;19.28;83.00
72126;SHT31;59999;51.676;22.650;2023-06-22T03:12:39;19.24;83.07
72126;SHT31;59999;51.676;22.650;2023-06-22T03:15:06;19.20;83.29
72126;SHT31;59999;51.676;22.650;2023-06-22T03:17:33;19.17;83.44
72126;SHT31;59999;51.676;22.650;2023-06-22T03:20:00;19.17;83.52
72126;SHT31;59999;51.676;22.650;2023-06-22T03:22:26;19.17;83.57
72126;SHT31;59999;51.676;22.650;2023-06-22T03:24:52;19.20;83.46
72126;SHT31;59999;51.676;22.650;2023-06-22T03:27:18;19.23;83.71
72126;SHT31;59999;51.676;22.650;2023-06-22T03:29:45;19.23;83.64
72126;SHT31;59999;51.676;22.650;2023-06-22T03:32:11;19.30;83.48
72126;SHT31;59999;51.676;22.650;2023-06-22T03:34:37;19.35;83.23
72126;SHT31;59999;51.676;22.650;2023-06-22T03:37:03;19.43;83.04
72126;SHT31;59999;51.676;22.650;2023-06-22T03:39:30;19.48;82.65
72126;SHT31;59999;51.676;22.650;2023-06-22T03:41:56;19.54;82.67
72126;SHT31;59999;51.676;22.650;2023-06-22T03:44:22;19.59;82.60
72126;SHT31;59999;51.676;22.650;2023-06-22T03:46:48;19.65;82.44
72126;SHT31;59999;51.676;22.650;2023-06-22T03:49:14;19.68;82.34
72126;SHT31;59999;51.676;22.650;2023-06-22T03:51:40;19.74;82.26
72126;SHT31;59999;51.676;22.650;2023-06-22T03:54:05;19.79;82.22
72126;SHT31;59999;51.676;22.650;2023-06-22T03:56:32;19.86;82.15
72126;SHT31;59999;51.676;22.650;2023-06-22T03:58:57;19.92;81.97
72126;SHT31;59999;51.676;22.650;2023-06-22T04:01:24;19.96;82.01
72126;SHT31;59999;51.676;22.650;2023-06-22T04:03:49;20.05;81.68
72126;SHT31;59999;51.676;22.650;2023-06-22T04:06:16;20.12;81.93
72126;SHT31;59999;51.676;22.650;2023-06-22T04:08:41;20.15;81.77
72126;SHT31;59999;51.676;22.650;2023-06-22T04:11:08;20.23;81.19
72126;SHT31;59999;51.676;22.650;2023-06-22T04:13:34;20.36;80.91
72126;SHT31;59999;51.676;22.650;2023-06-22T04:16:00;20.48;79.91
72126;SHT31;59999;51.676;22.650;2023-06-22T04:18:26;20.56;79.43
72126;SHT31;59999;51.676;22.650;2023-06-22T04:20:53;20.67;79.48
72126;SHT31;59999;51.676;22.650;2023-06-22T04:23:18;20.74;78.78
72126;SHT31;59999;51.676;22.650;2023-06-22T04:25:44;20.84;78.41
72126;SHT31;59999;51.676;22.650;2023-06-22T04:28:10;20.94;78.43
72126;SHT31;59999;51.676;22.650;2023-06-22T04:30:38;20.95;78.04
72126;SHT31;59999;51.676;22.650;2023-06-22T04:33:15;20.99;77.91
72126;SHT31;59999;51.676;22.650;2023-06-22T04:35:44;20.98;78.05
72126;SHT31;59999;51.676;22.650;2023-06-22T04:38:14;21.01;78.07
72126;SHT31;59999;51.676;22.650;2023-06-22T04:40:40;21.02;78.16
72126;SHT31;59999;51.676;22.650;2023-06-22T04:43:06;20.99;78.12
72126;SHT31;59999;51.676;22.650;2023-06-22T04:45:33;20.99;78.10
72126;SHT31;59999;51.676;22.650;2023-06-22T04:47:59;20.99;78.32
72126;SHT31;59999;51.676;22.650;2023-06-22T04:50:25;20.98;78.17
72126;SHT31;59999;51.676;22.650;2023-06-22T04:52:51;20.98;78.28
72126;SHT31;59999;51.676;22.650;2023-06-22T04:55:18;20.98;78.55
72126;SHT31;59999;51.676;22.650;2023-06-22T04:57:46;21.02;78.57
72126;SHT31;59999;51.676;22.650;2023-06-22T05:00:16;21.11;78.63
72126;SHT31;59999;51.676;22.650;2023-06-22T05:02:44;21.25;78.25
72126;SHT31;59999;51.676;22.650;2023-06-22T05:05:12;21.46;77.91
72126;SHT31;59999;51.676;22.650;2023-06-22T05:07:43;21.62;77.58
72126;SHT31;59999;51.676;22.650;2023-06-22T05:10:11;21.74;77.37
72126;SHT31;59999;51.676;22.650;2023-06-22T05:12:41;21.74;76.55
72126;SHT31;59999;51.676;22.650;2023-06-22T05:15:08;21.69;76.86
72126;SHT31;59999;51.676;22.650;2023-06-22T05:17:34;21.64;76.95
72126;SHT31;59999;51.676;22.650;2023-06-22T05:20:01;21.56;77.31
72126;SHT31;59999;51.676;22.650;2023-06-22T05:22:28;21.46;77.76
72126;SHT31;59999;51.676;22.650;2023-06-22T05:24:54;21.39;78.27
72126;SHT31;59999;51.676;22.650;2023-06-22T05:27:20;21.49;78.48
72126;SHT31;59999;51.676;22.650;2023-06-22T05:29:46;21.69;78.07
72126;SHT31;59999;51.676;22.650;2023-06-22T05:32:12;21.89;77.66
72126;SHT31;59999;51.676;22.650;2023-06-22T05:34:38;22.17;76.50
72126;SHT31;59999;51.676;22.650;2023-06-22T05:37:04;22.27;75.66
72126;SHT31;59999;51.676;22.650;2023-06-22T05:39:30;22.24;75.87
72126;SHT31;59999;51.676;22.650;2023-06-22T05:41:56;22.29;75.36
72126;SHT31;59999;51.676;22.650;2023-06-22T05:44:22;22.41;75.68
72126;SHT31;59999;51.676;22.650;2023-06-22T05:46:48;22.51;74.92
72126;SHT31;59999;51.676;22.650;2023-06-22T05:49:14;22.69;74.65
72126;SHT31;59999;51.676;22.650;2023-06-22T05:51:41;22.89;74.93
72126;SHT31;59999;51.676;22.650;2023-06-22T05:54:07;22.97;73.90
72126;SHT31;59999;51.676;22.650;2023-06-22T05:56:34;22.99;73.52
72126;SHT31;59999;51.676;22.650;2023-06-22T05:59:00;22.89;74.09
72126;SHT31;59999;51.676;22.650;2023-06-22T06:01:26;22.86;74.83
72126;SHT31;59999;51.676;22.650;2023-06-22T06:03:52;22.90;75.37
72126;SHT31;59999;51.676;22.650;2023-06-22T06:06:18;22.87;75.44
72126;SHT31;59999;51.676;22.650;2023-06-22T06:08:49;22.79;75.11
72126;SHT31;59999;51.676;22.650;2023-06-22T06:11:15;22.76;74.65
72126;SHT31;59999;51.676;22.650;2023-06-22T06:13:41;22.75;75.38
72126;SHT31;59999;51.676;22.650;2023-06-22T06:16:07;22.72;75.87
72126;SHT31;59999;51.676;22.650;2023-06-22T06:18:33;22.69;76.19
72126;SHT31;59999;51.676;22.650;2023-06-22T06:20:59;22.63;76.54
72126;SHT31;59999;51.676;22.650;2023-06-22T06:23:25;22.52;76.95
72126;SHT31;59999;51.676;22.650;2023-06-22T06:25:51;22.48;76.79
72126;SHT31;59999;51.676;22.650;2023-06-22T06:28:17;22.41;77.06
72126;SHT31;59999;51.676;22.650;2023-06-22T06:30:43;22.53;77.05
72126;SHT31;59999;51.676;22.650;2023-06-22T06:33:09;22.56;77.44
72126;SHT31;59999;51.676;22.650;2023-06-22T06:35:35;22.49;77.13
72126;SHT31;59999;51.676;22.650;2023-06-22T06:38:01;22.55;76.91
72126;SHT31;59999;51.676;22.650;2023-06-22T06:40:27;22.66;77.02
72126;SHT31;59999;51.676;22.650;2023-06-22T06:42:54;22.77;76.43
72126;SHT31;59999;51.676;22.650;2023-06-22T06:45:23;22.95;76.30
72126;SHT31;59999;51.676;22.650;2023-06-22T06:47:51;23.07;75.71
72126;SHT31;59999;51.676;22.650;2023-06-22T06:50:17;23.18;75.17
72126;SHT31;59999;51.676;22.650;2023-06-22T06:52:44;23.21;75.39
72126;SHT31;59999;51.676;22.650;2023-06-22T06:55:10;23.34;75.75
72126;SHT31;59999;51.676;22.650;2023-06-22T06:57:42;23.50;75.52
72126;SHT31;59999;51.676;22.650;2023-06-22T07:00:09;23.64;74.72
72126;SHT31;59999;51.676;22.650;2023-06-22T07:02:38;23.72;74.13
72126;SHT31;59999;51.676;22.650;2023-06-22T07:05:06;23.78;74.16
72126;SHT31;59999;51.676;22.650;2023-06-22T07:07:32;23.78;73.63
72126;SHT31;59999;51.676;22.650;2023-06-22T07:09:59;23.85;73.34
72126;SHT31;59999;51.676;22.650;2023-06-22T07:12:25;23.92;72.45
72126;SHT31;59999;51.676;22.650;2023-06-22T07:14:52;23.99;73.03
72126;SHT31;59999;51.676;22.650;2023-06-22T07:17:18;24.16;73.09
72126;SHT31;59999;51.676;22.650;2023-06-22T07:19:45;24.24;72.77
72126;SHT31;59999;51.676;22.650;2023-06-22T07:22:11;24.40;72.64
72126;SHT31;59999;51.676;22.650;2023-06-22T07:24:37;24.44;70.75
72126;SHT31;59999;51.676;22.650;2023-06-22T07:27:04;24.50;72.23
72126;SHT31;59999;51.676;22.650;2023-06-22T07:29:32;24.65;72.30
72126;SHT31;59999;51.676;22.650;2023-06-22T07:31:58;24.71;71.31
72126;SHT31;59999;51.676;22.650;2023-06-22T07:34:26;24.78;71.21
72126;SHT31;59999;51.676;22.650;2023-06-22T07:36:52;24.89;71.80
72126;SHT31;59999;51.676;22.650;2023-06-22T07:39:18;24.98;71.18
72126;SHT31;59999;51.676;22.650;2023-06-22T07:41:44;25.11;70.42
72126;SHT31;59999;51.676;22.650;2023-06-22T07:44:10;25.16;70.95
72126;SHT31;59999;51.676;22.650;2023-06-22T07:46:36;25.30;70.49
72126;SHT31;59999;51.676;22.650;2023-06-22T07:49:02;25.32;70.41
72126;SHT31;59999;51.676;22.650;2023-06-22T07:51:28;25.35;70.40
72126;SHT31;59999;51.676;22.650;2023-06-22T07:53:54;25.40;71.18
72126;SHT31;59999;51.676;22.650;2023-06-22T07:56:20;25.57;71.67
72126;SHT31;59999;51.676;22.650;2023-06-22T07:58:47;25.77;69.94
72126;SHT31;59999;51.676;22.650;2023-06-22T08:01:16;25.80;70.34
72126;SHT31;59999;51.676;22.650;2023-06-22T08:03:42;25.80;70.48
72126;SHT31;59999;51.676;22.650;2023-06-22T08:06:09;25.86;70.53
72126;SHT31;59999;51.676;22.650;2023-06-22T08:08:36;26.00;71.06
72126;SHT31;59999;51.676;22.650;2023-06-22T08:11:02;25.96;69.05
72126;SHT31;59999;51.676;22.650;2023-06-22T08:13:28;26.02;68.83
72126;SHT31;59999;51.676;22.650;2023-06-22T08:15:54;26.11;68.95
72126;SHT31;59999;51.676;22.650;2023-06-22T08:18:20;26.21;68.16
72126;SHT31;59999;51.676;22.650;2023-06-22T08:20:46;26.15;68.48
72126;SHT31;59999;51.676;22.650;2023-06-22T08:23:12;26.18;69.44
72126;SHT31;59999;51.676;22.650;2023-06-22T08:25:38;26.29;68.70
72126;SHT31;59999;51.676;22.650;2023-06-22T08:28:04;26.42;68.41
72126;SHT31;59999;51.676;22.650;2023-06-22T08:30:31;26.34;69.32
72126;SHT31;59999;51.676;22.650;2023-06-22T08:32:57;26.46;68.33
72126;SHT31;59999;51.676;22.650;2023-06-22T08:35:23;26.59;68.56
72126;SHT31;59999;51.676;22.650;2023-06-22T08:37:49;26.65;67.83
72126;SHT31;59999;51.676;22.650;2023-06-22T08:40:19;26.63;67.78
72126;SHT31;59999;51.676;22.650;2023-06-22T08:42:46;26.71;67.61
72126;SHT31;59999;51.676;22.650;2023-06-22T08:45:12;26.93;67.70
72126;SHT31;59999;51.676;22.650;2023-06-22T08:47:39;27.10;66.88
72126;SHT31;59999;51.676;22.650;2023-06-22T08:50:08;27.10;67.02
72126;SHT31;59999;51.676;22.650;2023-06-22T08:52:34;27.26;67.18
72126;SHT31;59999;51.676;22.650;2023-06-22T08:55:00;27.45;65.89
72126;SHT31;59999;51.676;22.650;2023-06-22T08:57:27;27.38;66.42
72126;SHT31;59999;51.676;22.650;2023-06-22T08:59:53;27.57;66.16
72126;SHT31;59999;51.676;22.650;2023-06-22T09:02:19;27.82;67.03
72126;SHT31;59999;51.676;22.650;2023-06-22T09:04:46;28.06;66.02
72126;SHT31;59999;51.676;22.650;2023-06-22T09:07:12;28.30;63.72
72126;SHT31;59999;51.676;22.650;2023-06-22T09:09:38;28.21;63.77
72126;SHT31;59999;51.676;22.650;2023-06-22T09:12:05;27.88;64.54
72126;SHT31;59999;51.676;22.650;2023-06-22T09:14:31;27.58;65.50
72126;SHT31;59999;51.676;22.650;2023-06-22T09:16:57;27.26;69.03
72126;SHT31;59999;51.676;22.650;2023-06-22T09:19:23;26.71;70.05
72126;SHT31;59999;51.676;22.650;2023-06-22T09:21:49;26.15;72.31
72126;SHT31;59999;51.676;22.650;2023-06-22T09:24:15;25.69;74.22
72126;SHT31;59999;51.676;22.650;2023-06-22T09:26:41;25.33;75.37
72126;SHT31;59999;51.676;22.650;2023-06-22T09:29:07;25.18;76.71
72126;SHT31;59999;51.676;22.650;2023-06-22T09:31:33;25.23;76.51
72126;SHT31;59999;51.676;22.650;2023-06-22T09:33:59;25.42;76.70
72126;SHT31;59999;51.676;22.650;2023-06-22T09:36:25;25.73;75.01
72126;SHT31;59999;51.676;22.650;2023-06-22T09:38:51;26.05;73.28
72126;SHT31;59999;51.676;22.650;2023-06-22T09:41:24;26.51;73.99
72126;SHT31;59999;51.676;22.650;2023-06-22T09:43:50;26.62;72.23
72126;SHT31;59999;51.676;22.650;2023-06-22T09:46:17;26.84;72.25
72126;SHT31;59999;51.676;22.650;2023-06-22T09:48:43;26.76;69.83
72126;SHT31;59999;51.676;22.650;2023-06-22T09:51:09;26.65;70.85
72126;SHT31;59999;51.676;22.650;2023-06-22T09:53:36;26.49;70.79
72126;SHT31;59999;51.676;22.650;2023-06-22T09:56:03;26.49;70.63
72126;SHT31;59999;51.676;22.650;2023-06-22T09:58:29;26.51;71.64
72126;SHT31;59999;51.676;22.650;2023-06-22T10:00:55;26.71;68.74
72126;SHT31;59999;51.676;22.650;2023-06-22T10:03:21;26.86;69.64
72126;SHT31;59999;51.676;22.650;2023-06-22T10:05:48;27.03;68.22
72126;SHT31;59999;51.676;22.650;2023-06-22T10:08:14;27.24;69.06
72126;SHT31;59999;51.676;22.650;2023-06-22T10:10:40;27.17;67.78
72126;SHT31;59999;51.676;22.650;2023-06-22T10:13:09;26.93;67.35
72126;SHT31;59999;51.676;22.650;2023-06-22T10:15:36;26.93;68.38
72126;SHT31;59999;51.676;22.650;2023-06-22T10:18:03;26.92;68.32
72126;SHT31;59999;51.676;22.650;2023-06-22T10:20:29;26.97;67.46
72126;SHT31;59999;51.676;22.650;2023-06-22T10:22:55;27.06;66.53
72126;SHT31;59999;51.676;22.650;2023-06-22T10:25:22;27.04;65.09
72126;SHT31;59999;51.676;22.650;2023-06-22T10:27:48;27.18;65.19
72126;SHT31;59999;51.676;22.650;2023-06-22T10:30:14;27.23;64.57
72126;SHT31;59999;51.676;22.650;2023-06-22T10:32:42;27.18;66.33
72126;SHT31;59999;51.676;22.650;2023-06-22T10:35:08;27.30;65.53
72126;SHT31;59999;51.676;22.650;2023-06-22T10:37:36;27.37;64.57
72126;SHT31;59999;51.676;22.650;2023-06-22T10:40:03;27.41;64.82
72126;SHT31;59999;51.676;22.650;2023-06-22T10:42:30;27.33;64.68
72126;SHT31;59999;51.676;22.650;2023-06-22T10:44:55;27.29;63.16
72126;SHT31;59999;51.676;22.650;2023-06-22T10:47:22;27.26;64.74
72126;SHT31;59999;51.676;22.650;2023-06-22T10:49:47;27.18;64.38
72126;SHT31;59999;51.676;22.650;2023-06-22T10:52:13;27.14;64.60
72126;SHT31;59999;51.676;22.650;2023-06-22T10:54:40;27.21;63.93
72126;SHT31;59999;51.676;22.650;2023-06-22T10:57:07;27.45;64.36
72126;SHT31;59999;51.676;22.650;2023-06-22T10:59:32;27.47;61.93
72126;SHT31;59999;51.676;22.650;2023-06-22T11:01:59;27.37;62.59
72126;SHT31;59999;51.676;22.650;2023-06-22T11:04:25;27.40;63.52
72126;SHT31;59999;51.676;22.650;2023-06-22T11:06:50;27.38;61.56
72126;SHT31;59999;51.676;22.650;2023-06-22T11:09:17;27.50;61.30
72126;SHT31;59999;51.676;22.650;2023-06-22T11:11:47;27.54;61.01
72126;SHT31;59999;51.676;22.650;2023-06-22T11:14:13;27.63;61.14
72126;SHT31;59999;51.676;22.650;2023-06-22T11:16:39;27.88;61.54
72126;SHT31;59999;51.676;22.650;2023-06-22T11:19:05;27.98;59.31
72126;SHT31;59999;51.676;22.650;2023-06-22T11:21:31;27.93;60.38
72126;SHT31;59999;51.676;22.650;2023-06-22T11:23:58;27.79;60.93
72126;SHT31;59999;51.676;22.650;2023-06-22T11:26:25;27.73;61.48
72126;SHT31;59999;51.676;22.650;2023-06-22T11:28:55;27.69;60.10
72126;SHT31;59999;51.676;22.650;2023-06-22T11:31:21;27.65;60.38
72126;SHT31;59999;51.676;22.650;2023-06-22T11:33:47;27.71;60.94
72126;SHT31;59999;51.676;22.650;2023-06-22T11:36:14;27.50;59.80
72126;SHT31;59999;51.676;22.650;2023-06-22T11:38:41;27.45;60.56
72126;SHT31;59999;51.676;22.650;2023-06-22T11:41:09;27.47;59.62
72126;SHT31;59999;51.676;22.650;2023-06-22T11:43:36;27.55;60.14
72126;SHT31;59999;51.676;22.650;2023-06-22T11:46:03;27.61;59.98
72126;SHT31;59999;51.676;22.650;2023-06-22T11:48:30;27.75;57.96
72126;SHT31;59999;51.676;22.650;2023-06-22T11:50:56;27.93;58.07
72126;SHT31;59999;51.676;22.650;2023-06-22T11:53:25;28.08;56.59
72126;SHT31;59999;51.676;22.650;2023-06-22T11:55:51;28.16;57.31
72126;SHT31;59999;51.676;22.650;2023-06-22T11:58:18;28.36;58.66
72126;SHT31;59999;51.676;22.650;2023-06-22T12:00:44;28.56;58.82
72126;SHT31;59999;51.676;22.650;2023-06-22T12:03:11;28.56;55.56
72126;SHT31;59999;51.676;22.650;2023-06-22T12:05:38;28.48;55.34
72126;SHT31;59999;51.676;22.650;2023-06-22T12:08:04;28.23;56.43
72126;SHT31;59999;51.676;22.650;2023-06-22T12:10:30;28.09;57.87
72126;SHT31;59999;51.676;22.650;2023-06-22T12:12:56;28.12;58.67
72126;SHT31;59999;51.676;22.650;2023-06-22T12:15:26;27.93;58.27
72126;SHT31;59999;51.676;22.650;2023-06-22T12:17:52;27.96;56.76
72126;SHT31;59999;51.676;22.650;2023-06-22T12:20:18;28.02;55.60
72126;SHT31;59999;51.676;22.650;2023-06-22T12:22:45;28.12;54.50
72126;SHT31;59999;51.676;22.650;2023-06-22T12:25:11;28.35;54.72
72126;SHT31;59999;51.676;22.650;2023-06-22T12:27:37;28.53;52.57
72126;SHT31;59999;51.676;22.650;2023-06-22T12:30:04;28.54;54.48
72126;SHT31;59999;51.676;22.650;2023-06-22T12:32:30;28.64;55.83
72126;SHT31;59999;51.676;22.650;2023-06-22T12:34:56;28.65;55.74
72126;SHT31;59999;51.676;22.650;2023-06-22T12:37:23;28.67;55.80
72126;SHT31;59999;51.676;22.650;2023-06-22T12:39:49;28.79;55.94
72126;SHT31;59999;51.676;22.650;2023-06-22T12:42:16;28.79;55.46
72126;SHT31;59999;51.676;22.650;2023-06-22T12:44:42;28.84;55.69
72126;SHT31;59999;51.676;22.650;2023-06-22T12:47:08;28.90;55.60
72126;SHT31;59999;51.676;22.650;2023-06-22T12:49:35;28.95;55.10
72126;SHT31;59999;51.676;22.650;2023-06-22T12:52:02;28.91;52.71
72126;SHT31;59999;51.676;22.650;2023-06-22T12:54:28;28.91;52.11
72126;SHT31;59999;51.676;22.650;2023-06-22T12:56:55;28.95;52.43
72126;SHT31;59999;51.676;22.650;2023-06-22T12:59:22;28.88;52.54
72126;SHT31;59999;51.676;22.650;2023-06-22T13:01:48;28.78;50.74
72126;SHT31;59999;51.676;22.650;2023-06-22T13:04:14;28.75;50.43
72126;SHT31;59999;51.676;22.650;2023-06-22T13:06:41;28.81;51.22
72126;SHT31;59999;51.676;22.650;2023-06-22T13:09:09;28.79;52.43
72126;SHT31;59999;51.676;22.650;2023-06-22T13:11:35;28.64;51.16
72126;SHT31;59999;51.676;22.650;2023-06-22T13:14:01;28.81;53.25
72126;SHT31;59999;51.676;22.650;2023-06-22T13:16:27;28.88;53.19
72126;SHT31;59999;51.676;22.650;2023-06-22T13:18:53;29.05;51.76
72126;SHT31;59999;51.676;22.650;2023-06-22T13:21:19;29.09;52.00
72126;SHT31;59999;51.676;22.650;2023-06-22T13:23:45;29.20;53.66
72126;SHT31;59999;51.676;22.650;2023-06-22T13:26:12;29.37;51.22
72126;SHT31;59999;51.676;22.650;2023-06-22T13:28:38;29.42;49.74
72126;SHT31;59999;51.676;22.650;2023-06-22T13:31:04;29.46;49.40
72126;SHT31;59999;51.676;22.650;2023-06-22T13:33:31;29.53;49.48
72126;SHT31;59999;51.676;22.650;2023-06-22T13:35:57;29.43;48.65
72126;SHT31;59999;51.676;22.650;2023-06-22T13:38:23;29.32;48.68
72126;SHT31;59999;51.676;22.650;2023-06-22T13:40:49;29.25;49.42
72126;SHT31;59999;51.676;22.650;2023-06-22T13:43:16;29.25;49.49
72126;SHT31;59999;51.676;22.650;2023-06-22T13:45:42;29.16;50.23
72126;SHT31;59999;51.676;22.650;2023-06-22T13:48:08;29.26;50.73
72126;SHT31;59999;51.676;22.650;2023-06-22T13:50:35;29.40;50.54
72126;SHT31;59999;51.676;22.650;2023-06-22T13:53:01;29.59;49.10
72126;SHT31;59999;51.676;22.650;2023-06-22T13:55:27;29.63;49.67
72126;SHT31;59999;51.676;22.650;2023-06-22T13:57:53;29.66;49.25
72126;SHT31;59999;51.676;22.650;2023-06-22T14:00:19;29.83;49.75
72126;SHT31;59999;51.676;22.650;2023-06-22T14:02:45;30.12;47.64
72126;SHT31;59999;51.676;22.650;2023-06-22T14:05:11;30.33;47.27
72126;SHT31;59999;51.676;22.650;2023-06-22T14:07:37;30.20;47.41
72126;SHT31;59999;51.676;22.650;2023-06-22T14:10:04;29.76;48.15
72126;SHT31;59999;51.676;22.650;2023-06-22T14:12:30;29.56;48.78
72126;SHT31;59999;51.676;22.650;2023-06-22T14:14:56;29.59;49.46
72126;SHT31;59999;51.676;22.650;2023-06-22T14:17:23;29.80;47.88
72126;SHT31;59999;51.676;22.650;2023-06-22T14:19:52;30.20;47.93
72126;SHT31;59999;51.676;22.650;2023-06-22T14:22:19;30.72;46.22
72126;SHT31;59999;51.676;22.650;2023-06-22T14:24:46;31.30;46.22
72126;SHT31;59999;51.676;22.650;2023-06-22T14:27:11;31.93;44.16
72126;SHT31;59999;51.676;22.650;2023-06-22T14:29:37;32.37;44.25
72126;SHT31;59999;51.676;22.650;2023-06-22T14:32:04;32.75;42.11
72126;SHT31;59999;51.676;22.650;2023-06-22T14:34:32;33.15;43.89
72126;SHT31;59999;51.676;22.650;2023-06-22T14:37:02;32.94;40.35
72126;SHT31;59999;51.676;22.650;2023-06-22T14:39:28;32.95;40.48
72126;SHT31;59999;51.676;22.650;2023-06-22T14:41:54;33.02;40.02
72126;SHT31;59999;51.676;22.650;2023-06-22T14:44:20;33.35;38.54
72126;SHT31;59999;51.676;22.650;2023-06-22T14:46:46;33.56;38.02
72126;SHT31;59999;51.676;22.650;2023-06-22T14:49:12;33.60;38.38
72126;SHT31;59999;51.676;22.650;2023-06-22T14:51:38;33.50;38.76
72126;SHT31;59999;51.676;22.650;2023-06-22T14:54:04;33.26;38.47
72126;SHT31;59999;51.676;22.650;2023-06-22T14:56:29;33.63;38.00
72126;SHT31;59999;51.676;22.650;2023-06-22T14:58:56;33.92;36.83
72126;SHT31;59999;51.676;22.650;2023-06-22T15:01:23;34.10;37.62
72126;SHT31;59999;51.676;22.650;2023-06-22T15:03:49;34.07;37.90
72126;SHT31;59999;51.676;22.650;2023-06-22T15:06:14;33.97;38.87
72126;SHT31;59999;51.676;22.650;2023-06-22T15:08:41;34.38;38.96
72126;SHT31;59999;51.676;22.650;2023-06-22T15:11:08;34.73;37.22
72126;SHT31;59999;51.676;22.650;2023-06-22T15:13:34;35.16;37.28
72126;SHT31;59999;51.676;22.650;2023-06-22T15:16:03;35.34;36.59
72126;SHT31;59999;51.676;22.650;2023-06-22T15:18:29;35.71;35.03
72126;SHT31;59999;51.676;22.650;2023-06-22T15:20:55;35.68;35.02